createdAt,value
2023-01-29T00:00:13.772Z,20.63
2023-01-29T00:02:41.997Z,19.10
2023-01-29T00:05:26.594Z,19.93
2023-01-29T00:07:55.815Z,18.90
2023-01-29T00:10:23.986Z,19.97
2023-01-29T00:12:52.774Z,20.00
2023-01-29T00:15:20.894Z,19.30
2023-01-29T00:17:49.050Z,19.00
2023-01-29T00:20:20.675Z,21.80
2023-01-29T00:22:48.810Z,18.97
2023-01-29T00:25:17.070Z,20.83
2023-01-29T00:27:45.146Z,21.70
2023-01-29T00:30:13.917Z,20.57
2023-01-29T00:32:42.120Z,19.87
2023-01-29T00:35:10.834Z,19.57
2023-01-29T00:37:40.292Z,22.53
2023-01-29T00:40:09.699Z,19.73
2023-01-29T00:42:54.964Z,21.03
2023-01-29T00:45:23.033Z,18.90
2023-01-29T00:47:51.084Z,20.50
2023-01-29T00:50:19.531Z,20.73
2023-01-29T00:52:51.762Z,20.97
2023-01-29T00:55:19.936Z,18.87
2023-01-29T00:57:48.017Z,20.00
2023-01-29T01:00:20.130Z,18.80
2023-01-29T01:03:05.863Z,21.70
2023-01-29T01:05:39.145Z,22.97
2023-01-29T01:08:31.848Z,23.77
2023-01-29T01:11:01.220Z,22.27
2023-01-29T01:13:31.393Z,22.17
2023-01-29T01:15:59.487Z,19.40
2023-01-29T01:18:30.130Z,21.33
2023-01-29T01:20:59.031Z,19.70
2023-01-29T01:23:28.464Z,22.80
2023-01-29T01:25:56.500Z,22.00
2023-01-29T01:28:24.548Z,20.27
2023-01-29T01:30:52.630Z,20.80
2023-01-29T01:33:20.719Z,20.87
2023-01-29T01:35:48.778Z,20.47
2023-01-29T01:38:16.792Z,21.67
2023-01-29T01:40:47.751Z,20.17
2023-01-29T01:43:19.107Z,20.43
2023-01-29T01:45:48.533Z,20.00
2023-01-29T01:48:17.961Z,21.40
2023-01-29T01:50:47.328Z,19.90
2023-01-29T01:53:16.877Z,19.23
2023-01-29T01:55:48.561Z,21.63
2023-01-29T01:58:18.655Z,21.67
2023-01-29T02:00:46.726Z,20.70
2023-01-29T02:03:32.513Z,20.70
2023-01-29T02:06:17.851Z,21.37
2023-01-29T02:09:06.326Z,20.73
2023-01-29T02:11:35.762Z,21.63
2023-01-29T02:14:03.784Z,23.30
2023-01-29T02:16:37.342Z,23.07
2023-01-29T02:19:05.717Z,25.07
2023-01-29T02:22:06.262Z,25.63
2023-01-29T02:25:00.816Z,23.40
2023-01-29T02:27:33.331Z,23.07
2023-01-29T02:30:04.442Z,23.33
2023-01-29T02:32:35.898Z,25.40
2023-01-29T02:35:31.939Z,24.07
2023-01-29T02:38:08.235Z,32.10
2023-01-29T02:40:38.758Z,24.77
2023-01-29T02:43:09.991Z,25.43
2023-01-29T02:45:44.734Z,25.97
2023-01-29T02:48:15.024Z,22.30
2023-01-29T02:50:44.636Z,25.60
2023-01-29T02:53:14.996Z,23.37
2023-01-29T02:55:45.877Z,22.60
2023-01-29T02:58:16.371Z,23.50
2023-01-29T03:00:46.829Z,26.07
2023-01-29T03:03:17.573Z,22.33
2023-01-29T03:05:51.180Z,24.93
2023-01-29T03:08:21.748Z,24.87
2023-01-29T03:10:52.126Z,24.87
2023-01-29T03:13:22.171Z,26.27
2023-01-29T03:16:02.998Z,25.10
2023-01-29T03:18:32.393Z,26.87
2023-01-29T03:21:04.118Z,26.27
2023-01-29T03:23:51.703Z,22.70
2023-01-29T03:26:38.791Z,26.47
2023-01-29T03:29:24.189Z,27.00
2023-01-29T03:32:06.031Z,27.50
2023-01-29T03:34:39.742Z,22.80
2023-01-29T03:37:09.454Z,23.20
2023-01-29T03:39:38.137Z,28.13
2023-01-29T03:42:09.633Z,24.70
2023-01-29T03:44:41.824Z,24.37
2023-01-29T03:47:15.882Z,25.17
2023-01-29T03:49:49.138Z,24.47
2023-01-29T03:52:19.378Z,30.80
2023-01-29T03:54:51.617Z,25.63
2023-01-29T03:57:21.487Z,26.23
2023-01-29T03:59:51.331Z,25.13
2023-01-29T04:02:27.933Z,24.40
2023-01-29T04:04:57.425Z,25.00
2023-01-29T04:07:27.940Z,27.40
2023-01-29T04:09:57.212Z,24.33
2023-01-29T04:12:26.885Z,28.13
2023-01-29T04:14:54.922Z,26.10
2023-01-29T04:17:29.921Z,26.90
2023-01-29T04:20:07.986Z,27.20
2023-01-29T04:22:36.840Z,29.33
2023-01-29T04:25:08.564Z,25.97
2023-01-29T04:27:41.304Z,27.27
2023-01-29T04:30:17.094Z,25.40
2023-01-29T04:32:54.878Z,24.10
2023-01-29T04:35:28.060Z,26.40
2023-01-29T04:38:01.129Z,26.97
2023-01-29T04:40:34.436Z,26.50
2023-01-29T04:43:05.175Z,26.83
2023-01-29T04:45:37.648Z,27.00
2023-01-29T04:48:11.035Z,26.90
2023-01-29T04:50:40.623Z,29.47
2023-01-29T04:53:12.040Z,29.67
2023-01-29T04:55:41.686Z,24.23
2023-01-29T04:58:12.482Z,26.80
2023-01-29T05:00:42.119Z,29.23
2023-01-29T05:03:11.834Z,28.53
2023-01-29T05:05:40.949Z,24.00
2023-01-29T05:08:09.005Z,27.50
2023-01-29T05:10:37.096Z,25.70
2023-01-29T05:13:05.998Z,28.97
2023-01-29T05:15:39.605Z,26.33
2023-01-29T05:18:08.814Z,26.77
2023-01-29T05:20:38.922Z,23.90
2023-01-29T05:23:09.961Z,26.27
2023-01-29T05:25:38.294Z,25.87
2023-01-29T05:28:05.819Z,23.60
2023-01-29T05:30:37.575Z,25.93
2023-01-29T05:33:05.920Z,26.23
2023-01-29T05:35:34.040Z,27.40
2023-01-29T05:38:08.870Z,23.67
2023-01-29T05:40:37.352Z,27.10
2023-01-29T05:43:05.881Z,27.40
2023-01-29T05:45:33.994Z,23.53
2023-01-29T05:48:02.106Z,24.37
2023-01-29T05:50:30.144Z,26.40
2023-01-29T05:52:58.912Z,24.60
2023-01-29T05:55:29.426Z,25.47
2023-01-29T05:57:57.459Z,23.73
2023-01-29T06:00:25.849Z,22.07
2023-01-29T06:02:54.089Z,25.33
2023-01-29T06:05:22.193Z,24.00
2023-01-29T06:07:50.256Z,26.90
2023-01-29T06:10:19.294Z,26.57
2023-01-29T06:12:56.935Z,23.77
2023-01-29T06:15:26.507Z,25.80
2023-01-29T06:17:54.968Z,24.27
2023-01-29T06:20:23.061Z,24.10
2023-01-29T06:22:51.091Z,25.77
2023-01-29T06:25:19.149Z,24.90
2023-01-29T06:27:47.186Z,23.23
2023-01-29T06:30:17.663Z,24.70
2023-01-29T06:32:45.809Z,24.73
2023-01-29T06:35:19.403Z,23.30
2023-01-29T06:37:47.459Z,22.00
2023-01-29T06:40:15.983Z,22.57
2023-01-29T06:42:46.076Z,25.13
2023-01-29T06:45:14.826Z,23.90
2023-01-29T06:47:44.261Z,21.60
2023-01-29T06:50:13.167Z,22.57
2023-01-29T06:52:41.226Z,21.47
2023-01-29T06:55:10.413Z,21.60
2023-01-29T06:57:38.448Z,25.20
2023-01-29T07:00:07.552Z,21.90
2023-01-29T07:02:35.563Z,21.33
2023-01-29T07:05:05.203Z,26.97
2023-01-29T07:07:33.243Z,24.67
2023-01-29T07:10:01.352Z,23.03
2023-01-29T07:12:29.406Z,21.37
2023-01-29T07:14:57.439Z,22.47
2023-01-29T07:17:25.531Z,21.50
2023-01-29T07:19:53.529Z,22.77
2023-01-29T07:22:26.892Z,21.90
2023-01-29T07:24:54.895Z,21.20
2023-01-29T07:27:22.943Z,21.20
2023-01-29T07:29:50.987Z,21.63
2023-01-29T07:32:19.090Z,20.20
2023-01-29T07:34:47.157Z,20.70
2023-01-29T07:37:15.228Z,21.97
2023-01-29T07:39:44.680Z,22.07
2023-01-29T07:42:19.419Z,21.87
2023-01-29T07:44:47.441Z,21.50
2023-01-29T07:47:19.406Z,25.30
2023-01-29T07:49:47.477Z,20.67
2023-01-29T07:52:15.652Z,21.63
2023-01-29T07:54:45.080Z,22.00
2023-01-29T07:57:13.132Z,20.07
2023-01-29T07:59:41.212Z,22.07
2023-01-29T08:02:10.246Z,22.27
2023-01-29T08:04:38.324Z,22.10
2023-01-29T08:07:06.493Z,23.90
2023-01-29T08:09:34.560Z,21.80
2023-01-29T08:12:03.977Z,20.70
2023-01-29T08:14:32.030Z,22.60
2023-01-29T08:17:00.099Z,19.83
2023-01-29T08:19:31.467Z,20.73
2023-01-29T08:21:59.485Z,21.00
2023-01-29T08:24:36.098Z,20.97
2023-01-29T08:27:16.924Z,23.40
2023-01-29T08:29:44.977Z,23.63
2023-01-29T08:32:13.026Z,22.20
2023-01-29T08:34:41.044Z,22.20
2023-01-29T08:37:09.074Z,22.83
2023-01-29T08:39:37.112Z,23.33
2023-01-29T08:42:05.323Z,21.50
2023-01-29T08:44:34.762Z,22.20
2023-01-29T08:47:02.931Z,25.80
2023-01-29T08:49:30.966Z,21.90
2023-01-29T08:51:59.015Z,21.90
2023-01-29T08:54:27.113Z,22.10
2023-01-29T08:56:55.208Z,20.63
2023-01-29T08:59:23.430Z,22.73
2023-01-29T09:01:52.844Z,20.47
2023-01-29T09:04:20.865Z,22.80
2023-01-29T09:06:48.911Z,23.80
2023-01-29T09:09:17.115Z,27.20
2023-01-29T09:11:49.485Z,20.87
2023-01-29T09:14:19.620Z,22.07
2023-01-29T09:16:47.733Z,26.17
2023-01-29T09:19:17.180Z,25.20
2023-01-29T09:21:49.836Z,24.87
2023-01-29T09:24:18.043Z,23.73
2023-01-29T09:26:46.118Z,23.97
2023-01-29T09:29:14.297Z,22.70
2023-01-29T09:31:42.470Z,26.17
2023-01-29T09:34:10.543Z,25.17
2023-01-29T09:36:39.999Z,23.03
2023-01-29T09:39:08.048Z,23.97
2023-01-29T09:41:44.461Z,24.10
2023-01-29T09:44:14.799Z,24.60
2023-01-29T09:46:43.740Z,26.33
2023-01-29T09:49:19.864Z,26.90
2023-01-29T09:51:50.391Z,30.17
2023-01-29T09:54:22.621Z,24.20
2023-01-29T09:56:51.160Z,22.37
2023-01-29T09:59:19.174Z,25.17
2023-01-29T10:01:53.872Z,25.57
2023-01-29T10:04:43.849Z,23.57
2023-01-29T10:07:43.047Z,25.67
2023-01-29T10:10:24.135Z,26.90
2023-01-29T10:12:59.278Z,25.27
2023-01-29T10:15:34.430Z,23.70
2023-01-29T10:18:11.646Z,27.07
2023-01-29T10:20:53.864Z,24.27
2023-01-29T10:23:26.147Z,25.53
2023-01-29T10:25:54.451Z,24.87
2023-01-29T10:28:25.279Z,28.33
2023-01-29T10:30:56.039Z,27.03
2023-01-29T10:33:33.097Z,23.40
2023-01-29T10:36:09.630Z,23.73
2023-01-29T10:38:44.234Z,26.47
2023-01-29T10:41:42.883Z,24.83
2023-01-29T10:44:18.891Z,24.50
2023-01-29T10:46:56.456Z,28.57
2023-01-29T10:49:31.141Z,26.07
2023-01-29T10:52:08.455Z,25.07
2023-01-29T10:54:51.205Z,24.70
2023-01-29T10:57:24.583Z,27.03
2023-01-29T10:59:59.241Z,26.93
2023-01-29T11:02:27.336Z,25.83
2023-01-29T11:04:55.407Z,23.53
2023-01-29T11:07:23.459Z,25.80
2023-01-29T11:09:58.789Z,26.73
2023-01-29T11:12:30.561Z,26.30
2023-01-29T11:15:00.450Z,25.40
2023-01-29T11:17:28.471Z,25.83
2023-01-29T11:19:56.725Z,24.87
2023-01-29T11:22:25.724Z,25.53
2023-01-29T11:25:16.876Z,25.23
2023-01-29T11:27:46.397Z,23.33
2023-01-29T11:30:21.660Z,28.00
2023-01-29T11:32:52.188Z,26.63
2023-01-29T11:35:24.491Z,28.10
2023-01-29T11:37:52.981Z,28.90
2023-01-29T11:40:38.142Z,26.67
2023-01-29T11:43:25.122Z,26.00
2023-01-29T11:45:54.316Z,24.97
2023-01-29T11:48:23.291Z,25.33
2023-01-29T11:50:54.946Z,24.43
2023-01-29T11:53:35.525Z,27.67
2023-01-29T11:56:07.418Z,25.23
2023-01-29T11:58:36.194Z,23.50
2023-01-29T12:01:04.520Z,25.50
2023-01-29T12:03:35.813Z,23.83
2023-01-29T12:06:05.730Z,24.47
2023-01-29T12:08:39.246Z,22.70
2023-01-29T12:11:13.850Z,26.27
2023-01-29T12:13:43.346Z,25.00
2023-01-29T12:16:20.805Z,23.23
2023-01-29T12:18:52.149Z,23.87
2023-01-29T12:21:22.087Z,26.33
2023-01-29T12:24:04.417Z,25.60
2023-01-29T12:26:35.040Z,23.60
2023-01-29T12:29:14.699Z,24.23
2023-01-29T12:31:45.377Z,22.30
2023-01-29T12:34:16.485Z,24.03
2023-01-29T12:36:47.114Z,26.00
2023-01-29T12:39:16.475Z,22.43
2023-01-29T12:41:47.834Z,25.27
2023-01-29T12:44:18.193Z,25.03
2023-01-29T12:46:50.435Z,23.20
2023-01-29T12:49:20.183Z,20.50
2023-01-29T12:51:55.865Z,20.40
2023-01-29T12:54:36.668Z,19.40
2023-01-29T12:57:21.567Z,17.93
2023-01-29T12:59:56.457Z,16.67
2023-01-29T13:02:38.181Z,16.50
2023-01-29T13:05:08.675Z,15.77
2023-01-29T13:07:40.116Z,14.97
2023-01-29T13:10:15.330Z,15.70
2023-01-29T13:12:50.153Z,16.20
2023-01-29T13:15:23.938Z,15.63
2023-01-29T13:17:53.403Z,14.10
2023-01-29T13:20:24.428Z,13.17
2023-01-29T13:22:52.982Z,12.60
2023-01-29T13:25:25.914Z,12.73
2023-01-29T13:27:55.358Z,12.53
2023-01-29T13:30:32.883Z,11.40
2023-01-29T13:33:10.381Z,10.87
2023-01-29T13:35:40.762Z,10.43
2023-01-29T13:38:23.081Z,10.50
2023-01-29T13:40:51.413Z,11.10
2023-01-29T13:43:22.498Z,14.17
2023-01-29T13:46:01.758Z,12.03
2023-01-29T13:48:32.538Z,10.27
2023-01-29T13:51:02.251Z,10.90
2023-01-29T13:53:31.827Z,10.47
2023-01-29T13:56:25.977Z,8.70
2023-01-29T13:58:55.606Z,10.13
2023-01-29T14:01:58.008Z,9.67
2023-01-29T14:04:32.518Z,11.27
2023-01-29T14:07:00.762Z,10.00
2023-01-29T14:09:50.683Z,8.83
2023-01-29T14:12:45.878Z,8.10
2023-01-29T14:15:28.607Z,12.23
2023-01-29T14:18:21.410Z,9.57
2023-01-29T14:21:04.081Z,8.87
2023-01-29T14:23:40.428Z,10.30
2023-01-29T14:26:24.116Z,12.57
2023-01-29T14:29:03.900Z,10.73
2023-01-29T14:31:45.915Z,11.93
2023-01-29T14:34:32.686Z,10.23
2023-01-29T14:37:04.286Z,11.30
2023-01-29T14:39:39.058Z,10.30
2023-01-29T14:42:15.784Z,9.60
2023-01-29T14:44:58.490Z,9.00
2023-01-29T14:48:07.196Z,8.70
2023-01-29T14:51:09.657Z,10.60
2023-01-29T14:53:54.539Z,8.97
2023-01-29T14:56:26.065Z,8.70
2023-01-29T14:58:56.153Z,9.13
2023-01-29T15:01:27.042Z,10.83
2023-01-29T15:04:03.778Z,14.13
2023-01-29T15:06:42.784Z,11.87
2023-01-29T15:09:32.728Z,11.50
2023-01-29T15:12:07.245Z,12.30
2023-01-29T15:15:00.609Z,10.47
2023-01-29T15:17:40.646Z,8.80
2023-01-29T15:20:31.071Z,10.40
2023-01-29T15:23:03.586Z,9.07
2023-01-29T15:25:35.633Z,9.13
2023-01-29T15:28:13.824Z,8.87
2023-01-29T15:30:45.105Z,8.40
2023-01-29T15:33:14.953Z,12.17
2023-01-29T15:35:43.407Z,9.57
2023-01-29T15:38:18.062Z,10.90
2023-01-29T15:40:53.332Z,9.30
2023-01-29T15:43:26.552Z,10.00
2023-01-29T15:45:57.791Z,9.90
2023-01-29T15:48:43.911Z,10.97
2023-01-29T15:51:15.194Z,9.87
2023-01-29T15:53:47.295Z,9.20
2023-01-29T15:56:17.251Z,8.17
2023-01-29T15:58:45.978Z,9.63
2023-01-29T16:01:14.088Z,9.37
2023-01-29T16:03:42.445Z,9.97
2023-01-29T16:06:10.721Z,8.77
2023-01-29T16:08:38.813Z,8.73
2023-01-29T16:11:08.371Z,14.40
2023-01-29T16:13:37.673Z,15.20
2023-01-29T16:16:08.403Z,12.30
2023-01-29T16:18:39.531Z,12.80
2023-01-29T16:21:09.897Z,11.70
2023-01-29T16:23:42.528Z,10.70
2023-01-29T16:26:16.077Z,11.37
2023-01-29T16:28:55.933Z,11.20
2023-01-29T16:31:25.009Z,12.50
2023-01-29T16:34:06.633Z,9.60
2023-01-29T16:36:34.705Z,9.70
2023-01-29T16:39:05.345Z,9.50
2023-01-29T16:41:35.964Z,11.27
2023-01-29T16:44:32.296Z,11.20
2023-01-29T16:47:07.096Z,12.37
2023-01-29T16:49:45.806Z,14.87
2023-01-29T16:52:18.541Z,12.07
2023-01-29T16:54:46.592Z,12.50
2023-01-29T16:57:22.914Z,11.40
2023-01-29T16:59:56.581Z,10.80
2023-01-29T17:02:27.914Z,9.20
2023-01-29T17:05:20.615Z,11.07
2023-01-29T17:08:01.947Z,11.60
2023-01-29T17:10:31.887Z,9.27
2023-01-29T17:13:36.301Z,10.40
2023-01-29T17:16:23.316Z,8.60
2023-01-29T17:19:02.028Z,9.77
2023-01-29T17:21:31.868Z,10.60
2023-01-29T17:23:59.915Z,10.53
2023-01-29T17:26:28.026Z,13.10
2023-01-29T17:28:57.474Z,12.03
2023-01-29T17:31:25.679Z,13.13
2023-01-29T17:33:53.757Z,12.80
2023-01-29T17:36:31.779Z,11.13
2023-01-29T17:39:20.001Z,11.77
2023-01-29T17:41:50.014Z,9.87
2023-01-29T17:44:45.348Z,11.20
2023-01-29T17:47:19.883Z,11.10
2023-01-29T17:50:11.187Z,10.73
2023-01-29T17:53:02.758Z,13.37
2023-01-29T17:55:37.897Z,10.87
2023-01-29T17:58:20.952Z,13.40
2023-01-29T18:00:50.440Z,11.37
2023-01-29T18:03:18.597Z,9.43
2023-01-29T18:05:47.265Z,12.87
2023-01-29T18:08:17.474Z,10.97
2023-01-29T18:10:45.651Z,10.07
2023-01-29T18:13:13.958Z,11.20
2023-01-29T18:15:51.500Z,12.57
2023-01-29T18:18:20.899Z,9.17
2023-01-29T18:20:48.967Z,10.27
2023-01-29T18:23:17.101Z,10.47
2023-01-29T18:25:45.179Z,10.77
2023-01-29T18:28:15.328Z,11.53
2023-01-29T18:30:44.294Z,11.87
2023-01-29T18:33:13.883Z,11.57
2023-01-29T18:35:41.940Z,13.20
2023-01-29T18:38:09.993Z,12.13
2023-01-29T18:40:38.101Z,10.73
2023-01-29T18:43:06.170Z,12.17
2023-01-29T18:45:34.305Z,12.63
2023-01-29T18:48:02.531Z,12.80
2023-01-29T18:50:31.912Z,13.40
2023-01-29T18:53:00.054Z,14.70
2023-01-29T18:55:28.150Z,12.30
2023-01-29T18:58:24.645Z,14.07
2023-01-29T19:00:44.309Z,12.07
2023-01-29T19:03:14.015Z,15.63
2023-01-29T19:05:43.452Z,11.20
2023-01-29T19:08:11.566Z,15.80
2023-01-29T19:10:40.604Z,15.07
2023-01-29T19:13:08.723Z,14.57
2023-01-29T19:15:37.988Z,14.17
2023-01-29T19:18:06.139Z,14.47
2023-01-29T19:20:34.182Z,14.50
2023-01-29T19:23:09.584Z,17.03
2023-01-29T19:25:38.910Z,13.30
2023-01-29T19:28:07.562Z,14.30
2023-01-29T19:30:35.642Z,14.47
2023-01-29T19:33:03.851Z,15.00
2023-01-29T19:35:32.680Z,13.40
2023-01-29T19:38:00.931Z,13.47
2023-01-29T19:40:30.344Z,13.27
2023-01-29T19:42:58.702Z,15.50
2023-01-29T19:45:49.010Z,14.07
2023-01-29T19:48:21.429Z,11.33
2023-01-29T19:50:56.411Z,16.53
2023-01-29T19:53:24.506Z,15.17
2023-01-29T19:55:59.962Z,12.47
2023-01-29T19:58:28.153Z,15.53
2023-01-29T20:00:57.404Z,14.40
2023-01-29T20:03:25.640Z,13.60
2023-01-29T20:05:53.709Z,15.23
2023-01-29T20:08:22.345Z,15.27
2023-01-29T20:10:50.520Z,13.17
2023-01-29T20:13:19.933Z,16.57
2023-01-29T20:15:50.913Z,14.20
2023-01-29T20:18:19.133Z,14.70
2023-01-29T20:20:48.011Z,15.33
2023-01-29T20:23:25.082Z,13.00
2023-01-29T20:26:03.685Z,13.87
2023-01-29T20:28:33.177Z,13.97
2023-01-29T20:31:01.348Z,18.40
2023-01-29T20:33:29.429Z,11.90
2023-01-29T20:35:57.869Z,13.90
2023-01-29T20:38:30.216Z,13.00
2023-01-29T20:41:21.285Z,12.87
2023-01-29T20:43:51.041Z,14.17
2023-01-29T20:46:19.108Z,14.20
2023-01-29T20:48:47.164Z,12.80
2023-01-29T20:51:20.168Z,13.80
2023-01-29T20:53:48.589Z,13.43
2023-01-29T20:56:24.564Z,16.43
2023-01-29T20:59:04.143Z,11.40
2023-01-29T21:01:32.179Z,13.67
2023-01-29T21:04:08.036Z,16.60
2023-01-29T21:06:36.095Z,17.93
2023-01-29T21:09:04.196Z,12.80
2023-01-29T21:11:33.461Z,14.80
2023-01-29T21:14:02.889Z,13.17
2023-01-29T21:16:31.327Z,14.53
2023-01-29T21:18:59.550Z,12.60
2023-01-29T21:21:27.633Z,13.80
2023-01-29T21:23:55.650Z,13.20
2023-01-29T21:26:24.276Z,11.97
2023-01-29T21:28:52.426Z,12.83
2023-01-29T21:31:21.947Z,11.87
2023-01-29T21:33:50.062Z,13.37
2023-01-29T21:36:18.109Z,13.07
2023-01-29T21:38:46.151Z,13.90
2023-01-29T21:41:14.332Z,12.80
2023-01-29T21:43:41.396Z,14.47
2023-01-29T21:46:11.962Z,14.30
2023-01-29T21:48:41.741Z,15.23
2023-01-29T21:51:09.885Z,12.63
2023-01-29T21:53:38.054Z,13.67
2023-01-29T21:56:06.702Z,14.20
2023-01-29T21:58:38.076Z,14.27
2023-01-29T22:01:23.042Z,13.87
2023-01-29T22:03:57.078Z,11.90
2023-01-29T22:06:26.219Z,11.70
2023-01-29T22:08:54.303Z,13.93
2023-01-29T22:11:22.557Z,15.97
2023-01-29T22:13:50.638Z,15.60
2023-01-29T22:16:18.720Z,14.07
2023-01-29T22:18:47.010Z,12.47
2023-01-29T22:21:16.487Z,14.07
2023-01-29T22:23:45.237Z,12.50
2023-01-29T22:26:13.379Z,18.50
2023-01-29T22:28:41.451Z,12.93
2023-01-29T22:31:09.544Z,12.73
2023-01-29T22:33:37.582Z,14.07
2023-01-29T22:36:08.922Z,14.03
2023-01-29T22:38:38.371Z,12.87
2023-01-29T22:41:06.513Z,15.80
2023-01-29T22:43:34.560Z,14.70
2023-01-29T22:46:02.631Z,12.90
2023-01-29T22:48:30.768Z,13.30
2023-01-29T22:51:09.651Z,12.87
2023-01-29T22:53:39.379Z,15.80
2023-01-29T22:56:08.295Z,15.03
2023-01-29T22:58:36.378Z,14.33
2023-01-29T23:01:04.506Z,14.17
2023-01-29T23:03:32.589Z,12.43
2023-01-29T23:06:00.657Z,12.60
2023-01-29T23:08:28.726Z,13.70
2023-01-29T23:11:13.900Z,17.73
2023-01-29T23:13:43.330Z,13.97
2023-01-29T23:16:11.539Z,15.60
2023-01-29T23:18:39.733Z,13.97
2023-01-29T23:21:08.330Z,14.77
2023-01-29T23:23:36.693Z,13.70
2023-01-29T23:26:24.078Z,13.57
2023-01-29T23:28:52.143Z,16.77
2023-01-29T23:31:20.249Z,15.17
2023-01-29T23:33:48.547Z,14.53
2023-01-29T23:36:20.201Z,15.03
2023-01-29T23:38:48.239Z,13.63
2023-01-29T23:41:17.719Z,15.30
2023-01-29T23:43:45.751Z,16.23
2023-01-29T23:46:13.946Z,16.07
2023-01-29T23:48:42.020Z,14.20
2023-01-29T23:51:10.814Z,15.80
2023-01-29T23:53:38.854Z,15.17
2023-01-29T23:56:07.558Z,15.37
2023-01-29T23:58:37.019Z,14.10
